createdAt,value
2023-03-19T00:00:33.266Z,1.05
2023-03-19T00:03:02.928Z,0.65
2023-03-19T00:05:31.246Z,1.42
2023-03-19T00:07:59.339Z,0.70
2023-03-19T00:10:27.484Z,0.80
2023-03-19T00:12:55.585Z,1.30
2023-03-19T00:15:23.669Z,0.98
2023-03-19T00:17:51.695Z,1.05
2023-03-19T00:20:22.229Z,1.10
2023-03-19T00:22:50.601Z,0.43
2023-03-19T00:25:18.772Z,1.00
2023-03-19T00:27:46.834Z,1.10
2023-03-19T00:30:15.822Z,1.05
2023-03-19T00:32:44.085Z,0.50
2023-03-19T00:35:12.212Z,1.23
2023-03-19T00:37:42.191Z,0.73
2023-03-19T00:40:11.784Z,0.85
2023-03-19T00:42:39.857Z,0.77
2023-03-19T00:45:09.289Z,0.80
2023-03-19T00:47:37.329Z,1.20
2023-03-19T00:50:06.483Z,0.63
2023-03-19T00:52:34.472Z,1.00
2023-03-19T00:55:03.863Z,0.65
2023-03-19T00:57:31.957Z,0.57
2023-03-19T00:59:59.922Z,1.45
2023-03-19T01:02:28.125Z,0.63
2023-03-19T01:04:56.205Z,1.00
2023-03-19T01:07:24.351Z,1.20
2023-03-19T01:09:52.755Z,0.98
2023-03-19T01:12:22.362Z,0.75
2023-03-19T01:14:50.383Z,0.47
2023-03-19T01:17:18.454Z,1.15
2023-03-19T01:19:46.687Z,0.75
2023-03-19T01:22:17.648Z,0.40
2023-03-19T01:24:46.018Z,0.63
2023-03-19T01:27:14.259Z,0.63
2023-03-19T01:29:43.620Z,1.27
2023-03-19T01:32:12.026Z,0.82
2023-03-19T01:34:41.083Z,1.42
2023-03-19T01:37:09.308Z,1.13
2023-03-19T01:39:37.401Z,0.98
2023-03-19T01:42:05.834Z,0.60
2023-03-19T01:44:36.185Z,0.88
2023-03-19T01:47:08.981Z,1.23
2023-03-19T01:49:37.674Z,0.45
2023-03-19T01:52:08.290Z,1.05
2023-03-19T01:54:37.573Z,0.75
2023-03-19T01:57:09.493Z,0.57
2023-03-19T01:59:41.162Z,0.77
2023-03-19T02:02:16.377Z,0.73
2023-03-19T02:04:46.081Z,0.63
2023-03-19T02:07:15.797Z,0.73
2023-03-19T02:09:44.081Z,0.45
2023-03-19T02:12:13.789Z,0.65
2023-03-19T02:14:41.965Z,0.73
2023-03-19T02:17:12.352Z,0.50
2023-03-19T02:19:47.153Z,0.22
2023-03-19T02:22:17.817Z,0.60
2023-03-19T02:24:52.849Z,0.40
2023-03-19T02:27:22.488Z,0.40
2023-03-19T02:29:50.640Z,0.45
2023-03-19T02:32:18.747Z,0.25
2023-03-19T02:34:47.151Z,0.63
2023-03-19T02:37:18.984Z,0.80
2023-03-19T02:39:53.043Z,0.43
2023-03-19T02:42:23.819Z,0.52
2023-03-19T02:44:51.844Z,0.75
2023-03-19T02:47:19.917Z,0.25
2023-03-19T02:49:47.934Z,0.93
2023-03-19T02:52:17.186Z,0.82
2023-03-19T02:54:45.408Z,1.27
2023-03-19T02:57:13.821Z,0.73
2023-03-19T02:59:43.338Z,0.88
2023-03-19T03:02:11.929Z,0.80
2023-03-19T03:04:40.069Z,0.60
2023-03-19T03:07:08.587Z,0.52
2023-03-19T03:09:36.764Z,0.57
2023-03-19T03:12:06.155Z,0.32
2023-03-19T03:14:35.069Z,0.77
2023-03-19T03:17:04.982Z,0.35
2023-03-19T03:19:33.289Z,0.68
2023-03-19T03:22:01.773Z,0.68
2023-03-19T03:24:29.959Z,0.55
2023-03-19T03:26:58.066Z,1.08
2023-03-19T03:29:26.124Z,0.77
2023-03-19T03:31:54.286Z,0.20
2023-03-19T03:34:23.870Z,0.45
2023-03-19T03:36:52.139Z,0.63
2023-03-19T03:39:20.230Z,0.90
2023-03-19T03:41:48.271Z,0.43
2023-03-19T03:44:16.292Z,0.73
2023-03-19T03:46:44.532Z,0.43
2023-03-19T03:49:12.548Z,0.52
2023-03-19T03:51:42.427Z,0.55
2023-03-19T03:54:12.146Z,0.82
2023-03-19T03:56:40.164Z,0.63
2023-03-19T03:59:08.265Z,0.50
2023-03-19T04:01:37.032Z,0.75
2023-03-19T04:04:05.128Z,0.47
2023-03-19T04:06:33.233Z,0.30
2023-03-19T04:09:02.809Z,0.77
2023-03-19T04:11:30.816Z,0.43
2023-03-19T04:13:59.082Z,0.50
2023-03-19T04:16:28.677Z,0.47
2023-03-19T04:18:56.743Z,0.52
2023-03-19T04:21:24.753Z,0.43
2023-03-19T04:23:53.321Z,0.30
2023-03-19T04:26:23.105Z,0.50
2023-03-19T04:28:51.201Z,0.30
2023-03-19T04:31:19.333Z,0.38
2023-03-19T04:33:47.729Z,0.70
2023-03-19T04:36:17.623Z,0.30
2023-03-19T04:38:45.601Z,0.82
2023-03-19T04:41:15.885Z,0.70
2023-03-19T04:43:45.485Z,0.40
2023-03-19T04:46:13.580Z,0.57
2023-03-19T04:48:41.593Z,0.57
2023-03-19T04:51:09.678Z,0.10
2023-03-19T04:53:38.909Z,0.30
2023-03-19T04:56:08.730Z,0.65
2023-03-19T04:58:36.745Z,0.38
2023-03-19T05:01:06.369Z,0.65
2023-03-19T05:03:34.523Z,0.15
2023-03-19T05:06:02.653Z,0.50
2023-03-19T05:08:30.754Z,0.47
2023-03-19T05:10:58.836Z,0.77
2023-03-19T05:13:26.819Z,0.55
2023-03-19T05:15:56.679Z,0.40
2023-03-19T05:18:26.161Z,0.77
2023-03-19T05:20:54.716Z,0.65
2023-03-19T05:23:23.182Z,0.30
2023-03-19T05:25:51.260Z,0.65
2023-03-19T05:28:19.306Z,0.38
2023-03-19T05:30:47.384Z,0.38
2023-03-19T05:33:15.609Z,0.30
2023-03-19T05:35:45.785Z,0.35
2023-03-19T05:38:13.874Z,0.17
2023-03-19T05:40:42.923Z,0.25
2023-03-19T05:43:11.703Z,0.80
2023-03-19T05:45:40.330Z,0.30
2023-03-19T05:48:09.048Z,0.52
2023-03-19T05:50:37.353Z,0.50
2023-03-19T05:53:06.814Z,0.30
2023-03-19T05:55:34.893Z,0.57
2023-03-19T05:58:02.956Z,0.43
2023-03-19T06:00:31.643Z,0.28
2023-03-19T06:02:59.738Z,0.50
2023-03-19T06:05:27.870Z,0.15
2023-03-19T06:07:56.391Z,0.30
2023-03-19T06:10:25.830Z,0.25
2023-03-19T06:12:53.911Z,0.30
2023-03-19T06:15:21.983Z,0.40
2023-03-19T06:17:50.067Z,0.60
2023-03-19T06:20:18.931Z,0.60
2023-03-19T06:22:46.967Z,0.63
2023-03-19T06:25:15.096Z,0.20
2023-03-19T06:27:44.790Z,0.50
2023-03-19T06:30:13.844Z,0.35
2023-03-19T06:32:42.286Z,0.57
2023-03-19T06:35:11.433Z,0.30
2023-03-19T06:37:39.462Z,0.25
2023-03-19T06:40:08.159Z,0.75
2023-03-19T06:42:36.507Z,0.30
2023-03-19T06:45:07.617Z,0.63
2023-03-19T06:47:35.725Z,0.60
2023-03-19T06:50:04.483Z,0.52
2023-03-19T06:52:32.507Z,0.73
2023-03-19T06:55:00.783Z,0.43
2023-03-19T06:57:28.851Z,0.90
2023-03-19T06:59:56.872Z,0.30
2023-03-19T07:02:26.355Z,0.40
2023-03-19T07:04:54.524Z,0.40
2023-03-19T07:07:21.920Z,0.63
2023-03-19T07:09:50.062Z,0.60
2023-03-19T07:12:18.078Z,0.65
2023-03-19T07:14:46.297Z,0.60
2023-03-19T07:17:14.326Z,0.25
2023-03-19T07:19:43.706Z,0.65
2023-03-19T07:22:12.162Z,0.75
2023-03-19T07:24:40.870Z,0.60
2023-03-19T07:27:09.254Z,0.50
2023-03-19T07:29:38.198Z,0.68
2023-03-19T07:32:06.897Z,0.75
2023-03-19T07:34:34.962Z,0.50
2023-03-19T07:37:04.641Z,0.45
2023-03-19T07:39:32.664Z,1.00
2023-03-19T07:42:00.827Z,0.82
2023-03-19T07:44:28.831Z,0.63
2023-03-19T07:46:56.958Z,0.80
2023-03-19T07:49:25.331Z,0.98
2023-03-19T07:51:53.413Z,0.52
2023-03-19T07:54:23.649Z,0.85
2023-03-19T07:56:51.693Z,0.60
2023-03-19T07:59:19.734Z,0.63
2023-03-19T08:01:47.900Z,0.40
2023-03-19T08:04:16.534Z,0.65
2023-03-19T08:06:44.643Z,0.93
2023-03-19T08:09:13.356Z,0.38
2023-03-19T08:11:43.046Z,0.45
2023-03-19T08:14:11.183Z,0.68
2023-03-19T08:16:39.584Z,0.60
2023-03-19T08:19:08.297Z,0.60
2023-03-19T08:21:36.353Z,0.32
2023-03-19T08:24:05.080Z,0.50
2023-03-19T08:26:33.486Z,0.77
2023-03-19T08:29:04.238Z,0.45
2023-03-19T08:31:32.479Z,0.57
2023-03-19T08:34:03.221Z,0.55
2023-03-19T08:36:31.730Z,0.47
2023-03-19T08:39:00.477Z,0.30
2023-03-19T08:41:28.786Z,0.57
2023-03-19T08:43:57.023Z,0.50
2023-03-19T08:46:26.955Z,0.90
2023-03-19T08:48:55.349Z,0.40
2023-03-19T08:51:24.821Z,0.32
2023-03-19T08:53:52.999Z,0.40
2023-03-19T08:56:21.143Z,0.40
2023-03-19T08:58:49.244Z,0.30
2023-03-19T09:01:17.740Z,0.50
2023-03-19T09:03:47.128Z,0.10
2023-03-19T09:06:16.111Z,0.40
2023-03-19T09:08:44.760Z,0.38
2023-03-19T09:11:14.500Z,0.40
2023-03-19T09:13:42.648Z,0.40
2023-03-19T09:16:10.935Z,0.45
2023-03-19T09:18:39.080Z,0.55
2023-03-19T09:21:08.707Z,0.50
2023-03-19T09:23:36.905Z,0.45
2023-03-19T09:26:05.133Z,0.60
2023-03-19T09:28:33.455Z,0.40
2023-03-19T09:31:07.029Z,0.60
2023-03-19T09:33:35.358Z,0.47
2023-03-19T09:36:03.478Z,0.40
2023-03-19T09:38:33.551Z,0.50
2023-03-19T09:41:09.982Z,0.40
2023-03-19T09:44:00.360Z,0.38
2023-03-19T09:46:35.381Z,0.47
2023-03-19T09:49:09.225Z,0.40
2023-03-19T09:51:44.516Z,0.40
2023-03-19T09:54:26.490Z,0.50
2023-03-19T09:56:54.650Z,0.50
2023-03-19T09:59:25.041Z,0.50
2023-03-19T10:02:00.046Z,0.57
2023-03-19T10:04:43.613Z,0.40
2023-03-19T10:07:25.455Z,0.43
2023-03-19T10:10:17.490Z,0.50
2023-03-19T10:12:54.832Z,0.43
2023-03-19T10:15:28.940Z,0.45
2023-03-19T10:18:04.459Z,0.63
2023-03-19T10:20:43.414Z,0.63
2023-03-19T10:23:34.846Z,0.40
2023-03-19T10:26:07.394Z,0.32
2023-03-19T10:28:35.457Z,0.43
2023-03-19T10:31:19.084Z,0.55
2023-03-19T10:33:53.909Z,0.70
2023-03-19T10:36:27.578Z,0.85
2023-03-19T10:38:56.119Z,0.57
2023-03-19T10:41:35.353Z,0.55
2023-03-19T10:44:07.031Z,0.60
2023-03-19T10:46:39.698Z,0.50
2023-03-19T10:49:13.168Z,0.40
2023-03-19T10:51:44.156Z,0.70
2023-03-19T10:54:23.536Z,0.50
2023-03-19T10:56:56.016Z,0.52
2023-03-19T10:59:27.273Z,0.60
2023-03-19T11:01:59.626Z,0.63
2023-03-19T11:04:29.695Z,0.40
2023-03-19T11:07:03.767Z,0.47
2023-03-19T11:09:35.838Z,0.50
2023-03-19T11:12:18.197Z,0.40
2023-03-19T11:14:49.124Z,0.50
2023-03-19T11:17:26.496Z,0.40
2023-03-19T11:19:56.815Z,0.20
2023-03-19T11:22:27.098Z,0.38
2023-03-19T11:24:57.073Z,0.60
2023-03-19T11:27:31.668Z,0.45
2023-03-19T11:30:00.174Z,0.70
2023-03-19T11:33:04.653Z,0.20
2023-03-19T11:35:37.908Z,0.30
2023-03-19T11:38:13.175Z,0.15
2023-03-19T11:40:46.624Z,0.20
2023-03-19T11:43:32.459Z,0.70
2023-03-19T11:46:12.926Z,0.63
2023-03-19T11:49:05.006Z,0.40
2023-03-19T11:51:40.103Z,0.70
2023-03-19T11:54:17.948Z,0.50
2023-03-19T11:56:51.366Z,0.40
2023-03-19T11:59:54.902Z,0.55
2023-03-19T12:02:48.660Z,0.45
2023-03-19T12:05:26.684Z,0.65
2023-03-19T12:08:07.405Z,0.28
2023-03-19T12:10:52.960Z,0.40
2023-03-19T12:13:36.672Z,0.55
2023-03-19T12:16:17.057Z,0.40
2023-03-19T12:19:04.510Z,0.32
2023-03-19T12:21:44.803Z,0.28
2023-03-19T12:24:23.203Z,0.30
2023-03-19T12:27:01.750Z,0.50
2023-03-19T12:29:41.238Z,0.55
2023-03-19T12:32:21.551Z,0.70
2023-03-19T12:34:53.823Z,0.43
2023-03-19T12:37:29.252Z,0.73
2023-03-19T12:40:16.756Z,0.60
2023-03-19T12:42:45.020Z,0.40
2023-03-19T12:45:24.420Z,0.75
2023-03-19T12:47:59.677Z,0.65
2023-03-19T12:50:31.318Z,0.57
2023-03-19T12:53:03.310Z,0.30
2023-03-19T12:55:38.545Z,0.50
2023-03-19T12:58:15.505Z,0.80
2023-03-19T13:00:50.825Z,0.55
2023-03-19T13:03:29.095Z,0.50
2023-03-19T13:06:03.312Z,0.50
2023-03-19T13:08:36.494Z,0.45
2023-03-19T13:11:11.592Z,0.55
2023-03-19T13:13:46.627Z,0.60
2023-03-19T13:16:31.842Z,0.55
2023-03-19T13:19:11.496Z,0.68
2023-03-19T13:21:42.578Z,0.73
2023-03-19T13:24:21.125Z,0.30
2023-03-19T13:26:51.026Z,0.50
2023-03-19T13:29:22.083Z,0.68
2023-03-19T13:31:50.746Z,0.93
2023-03-19T13:34:27.839Z,0.63
2023-03-19T13:37:02.422Z,0.70
2023-03-19T13:39:33.578Z,0.75
2023-03-19T13:42:25.066Z,0.60
2023-03-19T13:44:55.239Z,0.57
2023-03-19T13:47:42.461Z,0.45
2023-03-19T13:50:52.109Z,0.50
2023-03-19T13:53:42.343Z,0.45
2023-03-19T13:56:28.509Z,0.70
2023-03-19T13:59:25.137Z,0.50
2023-03-19T14:01:53.367Z,0.38
2023-03-19T14:04:24.833Z,0.75
2023-03-19T14:06:57.808Z,0.90
2023-03-19T14:09:44.158Z,0.60
2023-03-19T14:12:23.319Z,1.00
2023-03-19T14:14:54.820Z,0.70
2023-03-19T14:17:26.257Z,0.70
2023-03-19T14:19:55.502Z,0.75
2023-03-19T14:22:37.066Z,0.77
2023-03-19T14:25:17.704Z,0.90
2023-03-19T14:27:49.049Z,1.35
2023-03-19T14:30:32.806Z,0.82
2023-03-19T14:33:05.978Z,0.68
2023-03-19T14:35:37.805Z,0.40
2023-03-19T14:38:16.071Z,0.80
2023-03-19T14:40:48.007Z,0.50
2023-03-19T14:43:28.444Z,0.60
2023-03-19T14:46:01.449Z,0.70
2023-03-19T14:49:05.454Z,0.45
2023-03-19T14:52:06.218Z,0.85
2023-03-19T14:54:41.816Z,0.90
2023-03-19T14:57:17.071Z,0.77
2023-03-19T14:59:45.387Z,1.10
2023-03-19T15:02:26.455Z,0.80
2023-03-19T15:04:56.010Z,1.17
2023-03-19T15:07:30.545Z,0.80
2023-03-19T15:10:06.562Z,0.95
2023-03-19T15:12:53.883Z,1.33
2023-03-19T15:15:33.663Z,0.88
2023-03-19T15:18:04.613Z,0.80
2023-03-19T15:20:37.692Z,0.98
2023-03-19T15:23:20.010Z,1.30
2023-03-19T15:25:58.006Z,0.70
2023-03-19T15:28:30.130Z,0.70
2023-03-19T15:31:12.237Z,0.68
2023-03-19T15:33:47.226Z,0.68
2023-03-19T15:36:19.945Z,0.65
2023-03-19T15:38:53.342Z,0.70
2023-03-19T15:41:25.521Z,0.70
2023-03-19T15:43:54.241Z,0.90
2023-03-19T15:46:25.666Z,1.23
2023-03-19T15:48:59.130Z,0.70
2023-03-19T15:51:27.992Z,0.70
2023-03-19T15:53:56.734Z,0.55
2023-03-19T15:56:26.853Z,0.60
2023-03-19T15:58:58.333Z,0.77
2023-03-19T16:01:28.135Z,0.52
2023-03-19T16:04:00.741Z,0.73
2023-03-19T16:06:31.710Z,0.85
2023-03-19T16:09:16.824Z,0.38
2023-03-19T16:11:47.371Z,0.50
2023-03-19T16:14:25.095Z,0.70
2023-03-19T16:17:00.102Z,0.30
2023-03-19T16:19:32.536Z,0.45
2023-03-19T16:22:01.677Z,0.45
2023-03-19T16:24:34.139Z,0.68
2023-03-19T16:27:07.491Z,0.77
2023-03-19T16:29:39.754Z,0.60
2023-03-19T16:32:22.886Z,0.60
2023-03-19T16:34:53.684Z,0.40
2023-03-19T16:37:29.337Z,0.52
2023-03-19T16:39:58.690Z,0.22
2023-03-19T16:42:39.949Z,0.50
2023-03-19T16:45:26.279Z,0.40
2023-03-19T16:47:55.814Z,0.45
2023-03-19T16:50:30.033Z,0.25
2023-03-19T16:52:59.933Z,0.70
2023-03-19T16:55:32.468Z,0.50
2023-03-19T16:58:04.264Z,0.38
2023-03-19T17:00:33.785Z,0.50
2023-03-19T17:03:02.038Z,0.40
2023-03-19T17:05:31.025Z,0.30
2023-03-19T17:07:59.209Z,0.68
2023-03-19T17:10:30.313Z,0.60
2023-03-19T17:12:59.453Z,0.10
2023-03-19T17:15:33.123Z,0.60
2023-03-19T17:18:03.575Z,0.40
2023-03-19T17:20:34.490Z,0.65
2023-03-19T17:23:02.927Z,0.50
2023-03-19T17:25:31.298Z,0.57
2023-03-19T17:27:59.578Z,0.57
2023-03-19T17:30:29.134Z,1.05
2023-03-19T17:32:57.748Z,0.70
2023-03-19T17:35:26.404Z,0.82
2023-03-19T17:37:54.660Z,0.90
2023-03-19T17:40:26.854Z,0.80
2023-03-19T17:42:56.132Z,1.00
2023-03-19T17:45:27.846Z,0.75
2023-03-19T17:47:59.201Z,0.68
2023-03-19T17:50:29.587Z,0.75
2023-03-19T17:52:57.986Z,1.02
2023-03-19T17:55:28.523Z,0.60
2023-03-19T17:57:57.170Z,0.57
2023-03-19T18:00:26.564Z,0.65
2023-03-19T18:02:57.961Z,1.15
2023-03-19T18:05:27.513Z,0.80
2023-03-19T18:07:58.080Z,0.77
2023-03-19T18:10:30.378Z,0.60
2023-03-19T18:13:00.292Z,0.57
2023-03-19T18:15:29.756Z,1.15
2023-03-19T18:18:02.103Z,0.95
2023-03-19T18:20:35.695Z,1.00
2023-03-19T18:23:04.389Z,0.90
2023-03-19T18:25:35.885Z,1.20
2023-03-19T18:28:04.656Z,1.05
2023-03-19T18:30:35.441Z,2.13
2023-03-19T18:33:07.461Z,0.82
2023-03-19T18:35:39.413Z,1.02
2023-03-19T18:38:15.326Z,1.30
2023-03-19T18:40:43.700Z,1.05
2023-03-19T18:43:14.200Z,1.23
2023-03-19T18:45:45.423Z,1.08
2023-03-19T18:48:22.262Z,1.42
2023-03-19T18:50:50.860Z,1.80
2023-03-19T18:53:19.620Z,1.48
2023-03-19T18:55:47.960Z,1.25
2023-03-19T18:58:20.368Z,1.17
2023-03-19T19:00:49.471Z,1.20
2023-03-19T19:03:22.526Z,1.10
2023-03-19T19:05:53.715Z,1.48
2023-03-19T19:08:23.027Z,0.95
2023-03-19T19:10:56.577Z,1.33
2023-03-19T19:13:28.454Z,1.13
2023-03-19T19:15:56.785Z,0.95
2023-03-19T19:18:28.476Z,1.35
2023-03-19T19:20:58.515Z,1.27
2023-03-19T19:23:27.288Z,1.75
2023-03-19T19:25:56.408Z,1.17
2023-03-19T19:28:28.018Z,1.20
2023-03-19T19:30:57.682Z,1.50
2023-03-19T19:33:29.147Z,1.50
2023-03-19T19:35:57.618Z,1.13
2023-03-19T19:38:26.058Z,1.55
2023-03-19T19:40:58.304Z,1.25
2023-03-19T19:43:30.753Z,0.98
2023-03-19T19:46:00.203Z,1.65
2023-03-19T19:48:31.498Z,1.40
2023-03-19T19:51:00.047Z,1.58
2023-03-19T19:53:29.536Z,0.98
2023-03-19T19:55:58.053Z,1.27
2023-03-19T19:58:29.258Z,1.65
2023-03-19T20:01:03.744Z,1.20
2023-03-19T20:03:35.046Z,1.45
2023-03-19T20:06:03.884Z,1.48
2023-03-19T20:08:32.970Z,1.40
2023-03-19T20:11:02.623Z,1.50
2023-03-19T20:13:34.145Z,1.20
2023-03-19T20:16:03.805Z,1.55
2023-03-19T20:18:36.056Z,1.15
2023-03-19T20:21:07.467Z,1.27
2023-03-19T20:23:36.101Z,1.27
2023-03-19T20:26:04.380Z,1.27
2023-03-19T20:28:35.888Z,1.30
2023-03-19T20:31:05.362Z,1.27
2023-03-19T20:33:37.507Z,1.48
2023-03-19T20:36:06.580Z,1.90
2023-03-19T20:38:36.763Z,1.20
2023-03-19T20:41:05.182Z,2.67
2023-03-19T20:43:35.426Z,1.70
2023-03-19T20:46:05.795Z,1.58
2023-03-19T20:48:35.836Z,1.15
2023-03-19T20:51:04.596Z,1.33
2023-03-19T20:53:32.823Z,1.95
2023-03-19T20:56:03.463Z,1.48
2023-03-19T20:58:34.801Z,1.45
2023-03-19T21:01:02.947Z,1.52
2023-03-19T21:03:32.909Z,1.77
2023-03-19T21:06:06.147Z,1.42
2023-03-19T21:08:37.328Z,1.77
2023-03-19T21:11:05.820Z,1.38
2023-03-19T21:13:34.814Z,1.13
2023-03-19T21:16:03.139Z,1.60
2023-03-19T21:18:31.454Z,1.02
2023-03-19T21:20:59.976Z,1.77
2023-03-19T21:23:34.434Z,1.25
2023-03-19T21:26:08.578Z,1.63
2023-03-19T21:28:39.358Z,1.23
2023-03-19T21:31:08.100Z,0.95
2023-03-19T21:33:37.110Z,1.13
2023-03-19T21:36:06.511Z,2.08
2023-03-19T21:38:36.196Z,2.35
2023-03-19T21:41:06.757Z,1.92
2023-03-19T21:43:37.690Z,1.33
2023-03-19T21:46:21.390Z,1.63
2023-03-19T21:48:52.043Z,1.48
2023-03-19T21:51:20.522Z,1.08
2023-03-19T21:53:50.199Z,1.20
2023-03-19T21:56:23.218Z,1.27
2023-03-19T21:58:52.571Z,1.52
2023-03-19T22:01:23.715Z,1.35
2023-03-19T22:03:52.591Z,1.08
2023-03-19T22:06:22.190Z,1.67
2023-03-19T22:08:54.073Z,1.17
2023-03-19T22:11:26.790Z,1.30
2023-03-19T22:13:55.858Z,1.45
2023-03-19T22:16:26.209Z,1.13
2023-03-19T22:18:54.713Z,1.45
2023-03-19T22:21:23.945Z,1.00
2023-03-19T22:23:53.560Z,1.27
2023-03-19T22:26:31.007Z,1.00
2023-03-19T22:29:01.770Z,1.52
2023-03-19T22:31:30.958Z,1.25
2023-03-19T22:33:59.303Z,0.82
2023-03-19T22:36:27.475Z,0.93
2023-03-19T22:38:57.773Z,1.02
2023-03-19T22:41:30.197Z,1.23
2023-03-19T22:43:59.878Z,1.38
2023-03-19T22:46:28.372Z,0.80
2023-03-19T22:48:56.790Z,1.13
2023-03-19T22:51:27.324Z,1.75
2023-03-19T22:53:56.999Z,1.60
2023-03-19T22:56:24.993Z,1.33
2023-03-19T22:58:53.085Z,1.95
2023-03-19T23:01:32.739Z,1.52
2023-03-19T23:04:22.131Z,1.48
2023-03-19T23:06:51.421Z,1.70
2023-03-19T23:09:22.764Z,1.60
2023-03-19T23:11:51.131Z,2.58
2023-03-19T23:14:29.063Z,1.25
2023-03-19T23:16:59.981Z,1.80
2023-03-19T23:19:29.976Z,1.88
2023-03-19T23:21:59.748Z,2.17
2023-03-19T23:24:30.624Z,1.95
2023-03-19T23:27:00.326Z,1.23
2023-03-19T23:29:31.640Z,1.75
2023-03-19T23:31:59.998Z,1.63
2023-03-19T23:34:29.254Z,1.65
2023-03-19T23:36:58.013Z,2.28
2023-03-19T23:39:26.735Z,1.75
2023-03-19T23:41:59.186Z,2.05
2023-03-19T23:44:29.131Z,1.23
2023-03-19T23:47:01.571Z,2.00
2023-03-19T23:49:32.341Z,2.45
2023-03-19T23:52:00.728Z,2.38
2023-03-19T23:54:30.768Z,1.30
2023-03-19T23:57:03.803Z,2.28
2023-03-19T23:59:36.049Z,1.15
